CheckWX is a tool to help pilots better visualize weather data.  It is not intended as a substitute for an official pre-flight weather briefing.

18:03:44 UTC

KMMH METAR
Mammoth Yosemite Airport
Mammoth Lakes, California, USA
Current

9 mins ago

KMMH 241755Z AUTO 00000KT 10SM CLR 18/M01 A3027 RMK AO2 T01841010 10185 20025
Observed
Apr-24 @ 17:55 UTC
Visibility
10 SM
Flight Rules
VFR
Cloud Levels
  • Clear skies
Temperature
18°C / 64°F
Dewpoint
-1°C / 30°F
Humidity
28%
Altimeter
30.27" Hg
Pressure
1025.02 hPa
Previous

29 mins ago

KMMH 241735Z AUTO 16003KT 10SM CLR 18/00 A3027 RMK AO2 T01751003
Observed
Apr-24 @ 17:35 UTC
Wind
  • 160° at 3 KTS
Visibility
10 SM
Flight Rules
VFR
Cloud Levels
  • Clear skies
Temperature
18°C / 64°F
Dewpoint
-0°C / 32°F
Humidity
30%
Altimeter
30.27" Hg
Pressure
1025.02 hPa
Previous

49 mins ago

KMMH 241715Z AUTO 00000KT 10SM CLR 18/00 A3027 RMK AO2 T01750000
Observed
Apr-24 @ 17:15 UTC
Visibility
10 SM
Flight Rules
VFR
Cloud Levels
  • Clear skies
Temperature
18°C / 64°F
Dewpoint
C / 32°F
Humidity
30%
Altimeter
30.27" Hg
Pressure
1025.02 hPa